createdAt,value
2022-08-19T00:02:17.884Z,8.70
2022-08-19T00:04:53.864Z,8.40
2022-08-19T00:07:25.528Z,8.80
2022-08-19T00:09:57.658Z,8.60
2022-08-19T00:12:29.749Z,7.50
2022-08-19T00:15:01.456Z,8.40
2022-08-19T00:17:33.114Z,8.30
2022-08-19T00:20:05.539Z,8.40
2022-08-19T00:22:37.767Z,8.20
2022-08-19T00:25:10.797Z,8.60
2022-08-19T00:27:42.934Z,8.30
2022-08-19T00:30:17.337Z,8.70
2022-08-19T00:32:48.722Z,8.70
2022-08-19T00:35:20.621Z,8.20
2022-08-19T00:37:54.009Z,8.20
2022-08-19T00:40:26.901Z,9.30
2022-08-19T00:42:58.973Z,8.30
2022-08-19T00:45:36.600Z,8.00
2022-08-19T00:48:14.767Z,9.00
2022-08-19T00:50:51.881Z,9.10
2022-08-19T00:53:27.693Z,8.90
2022-08-19T00:56:02.268Z,9.00
2022-08-19T00:58:38.169Z,8.70
2022-08-19T01:01:10.218Z,8.90
2022-08-19T01:03:57.938Z,8.90
2022-08-19T01:06:33.786Z,8.90
2022-08-19T01:09:06.978Z,8.50
2022-08-19T01:11:42.233Z,9.50
2022-08-19T01:14:14.788Z,9.30
2022-08-19T01:16:49.007Z,9.30
2022-08-19T01:19:28.972Z,9.40
2022-08-19T01:22:14.177Z,9.90
2022-08-19T01:24:49.813Z,9.10
2022-08-19T01:27:22.213Z,9.00
2022-08-19T01:29:53.860Z,8.80
2022-08-19T01:32:33.312Z,9.30
2022-08-19T01:35:06.124Z,9.40
2022-08-19T01:37:49.230Z,8.80
2022-08-19T01:40:23.044Z,9.50
2022-08-19T01:42:55.418Z,8.80
2022-08-19T01:45:29.659Z,9.30
2022-08-19T01:48:02.716Z,9.20
2022-08-19T01:50:35.687Z,9.00
2022-08-19T01:53:11.975Z,9.30
2022-08-19T01:55:47.004Z,8.40
2022-08-19T01:58:22.973Z,9.00
2022-08-19T02:00:55.594Z,9.60
2022-08-19T02:03:27.992Z,9.40
2022-08-19T02:06:02.889Z,8.30
2022-08-19T02:08:35.956Z,8.00
2022-08-19T02:11:08.969Z,8.20
2022-08-19T02:13:40.758Z,9.30
2022-08-19T02:16:13.153Z,8.90
2022-08-19T02:18:44.599Z,9.90
2022-08-19T02:21:16.980Z,8.80
2022-08-19T02:23:49.774Z,9.70
2022-08-19T02:26:21.750Z,9.30
2022-08-19T02:28:53.525Z,9.70
2022-08-19T02:31:28.878Z,8.90
2022-08-19T02:34:00.910Z,8.70
2022-08-19T02:36:32.775Z,9.20
2022-08-19T02:39:05.401Z,9.40
2022-08-19T02:41:37.969Z,9.30
2022-08-19T02:44:20.401Z,9.50
2022-08-19T02:47:02.092Z,9.20
2022-08-19T02:49:35.663Z,8.90
2022-08-19T02:52:07.655Z,8.40
2022-08-19T02:54:40.082Z,8.70
2022-08-19T02:57:11.671Z,9.10
2022-08-19T02:59:43.251Z,9.70
2022-08-19T03:02:14.672Z,9.30
2022-08-19T03:04:47.169Z,9.20
2022-08-19T03:07:19.963Z,9.70
2022-08-19T03:09:51.691Z,9.80
2022-08-19T03:12:23.516Z,9.10
2022-08-19T03:14:55.120Z,10.00
2022-08-19T03:17:26.506Z,9.20
2022-08-19T03:19:58.168Z,9.30
2022-08-19T03:22:31.403Z,9.30
2022-08-19T03:25:03.661Z,9.30
2022-08-19T03:27:36.825Z,9.10
2022-08-19T03:30:20.479Z,9.20
2022-08-19T03:33:00.194Z,9.50
2022-08-19T03:35:38.930Z,9.20
2022-08-19T03:38:16.748Z,9.30
2022-08-19T03:40:48.374Z,8.60
2022-08-19T03:43:20.466Z,9.30
2022-08-19T03:45:52.525Z,8.50
2022-08-19T03:48:24.097Z,9.20
2022-08-19T03:50:55.586Z,9.70
2022-08-19T03:53:27.307Z,9.90
2022-08-19T03:56:00.900Z,9.40
2022-08-19T03:58:33.167Z,9.70
2022-08-19T04:01:04.731Z,9.00
2022-08-19T04:03:37.250Z,9.70
2022-08-19T04:06:17.145Z,9.60
2022-08-19T04:08:50.756Z,9.50
2022-08-19T04:11:43.771Z,9.30
2022-08-19T04:14:18.273Z,9.00
2022-08-19T04:16:51.399Z,9.10
2022-08-19T04:19:24.301Z,8.50
2022-08-19T04:21:57.864Z,8.90
2022-08-19T04:24:29.619Z,8.80
2022-08-19T04:27:01.823Z,11.30
2022-08-19T04:29:34.023Z,13.10
2022-08-19T04:32:09.424Z,10.30
2022-08-19T04:35:02.355Z,9.20
2022-08-19T04:37:35.711Z,9.00
2022-08-19T04:40:27.910Z,9.20
2022-08-19T04:42:59.723Z,9.00
2022-08-19T04:45:39.747Z,8.60
2022-08-19T04:48:19.606Z,9.10
2022-08-19T04:51:00.101Z,8.60
2022-08-19T04:53:37.784Z,7.60
2022-08-19T04:56:13.561Z,8.60
2022-08-19T04:58:47.169Z,9.10
2022-08-19T05:01:24.168Z,8.50
2022-08-19T05:03:55.751Z,8.70
2022-08-19T05:06:27.843Z,8.50
2022-08-19T05:08:59.506Z,9.10
2022-08-19T05:11:34.010Z,8.60
2022-08-19T05:14:05.839Z,8.00
2022-08-19T05:16:37.584Z,8.60
2022-08-19T05:19:26.938Z,8.50
2022-08-19T05:22:15.942Z,8.40
2022-08-19T05:25:11.159Z,9.00
2022-08-19T05:27:41.169Z,7.80
2022-08-19T05:30:15.483Z,8.10
2022-08-19T05:32:47.127Z,8.00
2022-08-19T05:35:20.306Z,8.60
2022-08-19T05:37:54.913Z,7.80
2022-08-19T05:40:30.487Z,6.90
2022-08-19T05:43:02.039Z,7.90
2022-08-19T05:45:33.537Z,7.60
2022-08-19T05:48:05.146Z,7.90
2022-08-19T05:50:39.318Z,7.40
2022-08-19T05:53:11.862Z,7.80
2022-08-19T05:55:43.517Z,8.60
2022-08-19T05:58:14.999Z,7.80
2022-08-19T06:00:47.096Z,8.20
2022-08-19T06:03:18.640Z,7.10
2022-08-19T06:05:51.917Z,6.40
2022-08-19T06:08:34.557Z,7.80
2022-08-19T06:11:20.373Z,7.50
2022-08-19T06:13:59.448Z,7.20
2022-08-19T06:16:33.039Z,7.00
2022-08-19T06:19:08.695Z,7.30
2022-08-19T06:21:43.669Z,7.50
2022-08-19T06:24:18.618Z,7.40
2022-08-19T06:26:51.829Z,7.00
2022-08-19T06:29:27.070Z,7.40
2022-08-19T06:34:34.766Z,6.60
2022-08-19T06:37:07.226Z,7.10
2022-08-19T06:39:42.397Z,7.40
2022-08-19T06:42:17.744Z,7.60
2022-08-19T06:44:53.146Z,7.20
2022-08-19T06:47:28.705Z,8.10
2022-08-19T06:50:05.386Z,8.00
2022-08-19T06:52:40.590Z,7.30
2022-08-19T06:55:13.056Z,7.50
2022-08-19T06:57:47.556Z,7.40
2022-08-19T07:00:19.878Z,7.90
2022-08-19T07:02:56.177Z,8.00
2022-08-19T07:05:32.516Z,7.30
2022-08-19T07:08:06.657Z,7.60
2022-08-19T07:10:38.330Z,8.20
2022-08-19T07:13:14.646Z,7.00
2022-08-19T07:15:47.740Z,7.60
2022-08-19T07:18:19.965Z,7.20
2022-08-19T07:20:51.694Z,7.40
2022-08-19T07:23:24.204Z,7.20
2022-08-19T07:25:56.234Z,7.10
2022-08-19T07:28:28.010Z,6.30
2022-08-19T07:30:59.512Z,7.60
2022-08-19T07:33:33.918Z,7.50
2022-08-19T07:36:07.948Z,7.30
2022-08-19T07:38:40.997Z,6.70
2022-08-19T07:41:14.774Z,6.90
2022-08-19T07:46:18.118Z,6.60
2022-08-19T07:48:51.592Z,6.30
2022-08-19T07:51:36.759Z,6.70
2022-08-19T07:54:10.656Z,6.10
2022-08-19T07:56:42.690Z,6.10
2022-08-19T07:59:15.416Z,6.90
2022-08-19T08:01:47.660Z,6.60
2022-08-19T08:04:37.098Z,6.50
2022-08-19T08:07:31.476Z,6.30
2022-08-19T08:10:05.876Z,6.50
2022-08-19T08:13:09.183Z,6.60
2022-08-19T08:15:45.996Z,6.30
2022-08-19T08:18:17.582Z,6.20
2022-08-19T08:20:49.637Z,6.30
2022-08-19T08:23:27.552Z,6.40
2022-08-19T08:26:03.511Z,6.40
2022-08-19T08:28:35.175Z,6.40
2022-08-19T08:31:09.389Z,6.50
2022-08-19T08:33:43.114Z,6.60
2022-08-19T08:36:16.151Z,6.10
2022-08-19T08:38:48.515Z,6.50
2022-08-19T08:41:31.160Z,6.90
2022-08-19T08:44:05.442Z,6.60
2022-08-19T08:46:42.854Z,6.50
2022-08-19T08:49:29.011Z,6.90
2022-08-19T08:52:07.399Z,7.00
2022-08-19T08:54:48.979Z,6.90
2022-08-19T08:57:38.066Z,6.70
2022-08-19T09:00:18.090Z,6.50
2022-08-19T09:02:50.935Z,6.30
2022-08-19T09:05:25.993Z,6.60
2022-08-19T09:08:07.073Z,5.80
2022-08-19T09:10:44.692Z,5.70
2022-08-19T09:13:30.237Z,5.80
2022-08-19T09:16:14.391Z,6.30
2022-08-19T09:18:56.727Z,6.70
2022-08-19T09:21:33.393Z,6.10
2022-08-19T09:24:07.590Z,6.10
2022-08-19T09:26:51.823Z,5.00
2022-08-19T09:29:24.291Z,5.60
2022-08-19T09:31:56.551Z,5.10
2022-08-19T09:34:30.556Z,5.60
2022-08-19T09:37:10.179Z,5.50
2022-08-19T09:39:43.994Z,5.60
2022-08-19T09:42:16.448Z,5.60
2022-08-19T09:45:01.657Z,5.60
2022-08-19T09:47:40.527Z,5.50
2022-08-19T09:50:16.589Z,5.70
2022-08-19T09:52:55.403Z,5.20
2022-08-19T09:55:31.876Z,5.30
2022-08-19T09:58:05.597Z,5.80
2022-08-19T10:00:39.830Z,5.40
2022-08-19T10:03:13.220Z,5.30
2022-08-19T10:05:55.277Z,7.00
2022-08-19T10:08:29.292Z,5.50
2022-08-19T10:13:51.490Z,5.40
2022-08-19T10:16:25.934Z,5.70
2022-08-19T10:19:03.702Z,6.20
2022-08-19T10:21:37.909Z,5.70
2022-08-19T10:24:12.362Z,5.50
2022-08-19T10:26:48.710Z,5.90
2022-08-19T10:29:32.470Z,5.70
2022-08-19T10:32:09.739Z,5.60
2022-08-19T10:34:48.033Z,6.10
2022-08-19T10:37:28.808Z,5.60
2022-08-19T10:40:05.166Z,5.30
2022-08-19T10:42:37.416Z,5.40
2022-08-19T10:45:10.979Z,5.30
2022-08-19T10:47:42.762Z,6.00
2022-08-19T10:50:29.023Z,5.40
2022-08-19T10:53:08.078Z,5.30
2022-08-19T10:55:58.432Z,5.60
2022-08-19T10:58:30.134Z,5.70
2022-08-19T11:01:02.869Z,5.50
2022-08-19T11:03:35.084Z,5.90
2022-08-19T11:06:09.369Z,5.80
2022-08-19T11:08:42.089Z,5.60
2022-08-19T11:11:17.747Z,6.40
2022-08-19T11:13:51.262Z,5.40
2022-08-19T11:16:26.683Z,6.10
2022-08-19T11:19:02.283Z,5.70
2022-08-19T11:21:36.151Z,6.00
2022-08-19T11:24:11.208Z,5.60
2022-08-19T11:26:43.932Z,6.00
2022-08-19T11:29:16.686Z,5.90
2022-08-19T11:31:52.112Z,6.10
2022-08-19T11:34:25.575Z,6.50
2022-08-19T11:36:59.967Z,6.70
2022-08-19T11:39:33.827Z,6.50
2022-08-19T11:42:27.535Z,6.00
2022-08-19T11:44:59.421Z,6.40
2022-08-19T11:47:31.872Z,5.80
2022-08-19T11:50:03.487Z,6.60
2022-08-19T11:52:35.478Z,7.00
2022-08-19T11:55:08.348Z,6.50
2022-08-19T11:57:42.320Z,6.10
2022-08-19T12:00:16.410Z,6.40
2022-08-19T12:02:47.856Z,6.60
2022-08-19T12:05:19.930Z,6.70
2022-08-19T12:07:51.404Z,6.50
2022-08-19T12:10:26.313Z,6.20
2022-08-19T12:12:59.027Z,6.00
2022-08-19T12:15:37.110Z,6.70
2022-08-19T12:18:10.233Z,6.20
2022-08-19T12:20:47.136Z,6.10
2022-08-19T12:23:18.973Z,6.20
2022-08-19T12:25:52.999Z,6.00
2022-08-19T12:28:27.238Z,6.10
2022-08-19T12:31:03.708Z,5.70
2022-08-19T12:33:35.339Z,6.10
2022-08-19T12:36:09.470Z,6.30
2022-08-19T12:38:44.231Z,6.20
2022-08-19T12:41:19.616Z,6.60
2022-08-19T12:43:51.940Z,6.50
2022-08-19T12:46:26.189Z,6.20
2022-08-19T12:48:59.202Z,6.10
2022-08-19T12:51:37.455Z,5.80
2022-08-19T12:54:10.840Z,6.00
2022-08-19T12:56:43.779Z,5.50
2022-08-19T12:59:18.034Z,5.90
2022-08-19T13:01:49.866Z,6.00
2022-08-19T13:04:22.660Z,6.50
2022-08-19T13:06:54.139Z,6.10
2022-08-19T13:09:26.944Z,6.00
2022-08-19T13:11:58.889Z,6.10
2022-08-19T13:14:31.805Z,6.30
2022-08-19T13:17:05.297Z,5.70
2022-08-19T13:19:38.475Z,5.70
2022-08-19T13:22:14.918Z,5.50
2022-08-19T13:24:47.542Z,5.40
2022-08-19T13:27:19.144Z,5.90
2022-08-19T13:30:07.983Z,6.50
2022-08-19T13:32:57.034Z,6.00
2022-08-19T13:35:30.098Z,6.10
2022-08-19T13:38:06.398Z,5.40
2022-08-19T13:40:43.872Z,5.90
2022-08-19T13:43:22.851Z,5.60
2022-08-19T13:45:57.692Z,6.10
2022-08-19T13:48:30.096Z,5.90
2022-08-19T13:51:01.549Z,5.60
2022-08-19T13:53:33.046Z,5.70
2022-08-19T13:56:07.429Z,5.70
2022-08-19T13:58:39.012Z,5.30
2022-08-19T14:01:11.682Z,5.60
2022-08-19T14:03:43.558Z,5.50
2022-08-19T14:06:14.927Z,6.00
2022-08-19T14:08:46.669Z,5.20
2022-08-19T14:11:26.083Z,5.40
2022-08-19T14:13:57.930Z,5.50
2022-08-19T14:16:31.749Z,5.50
2022-08-19T14:19:03.338Z,5.50
2022-08-19T14:21:41.025Z,5.60
2022-08-19T14:24:13.062Z,5.60
2022-08-19T14:26:45.899Z,5.90
2022-08-19T14:29:17.580Z,5.40
2022-08-19T14:31:49.774Z,5.70
2022-08-19T14:34:21.648Z,5.30
2022-08-19T14:36:53.877Z,5.80
2022-08-19T14:39:25.744Z,5.80
2022-08-19T14:41:57.950Z,5.60
2022-08-19T14:44:30.331Z,5.40
2022-08-19T14:47:02.058Z,5.30
2022-08-19T14:49:35.246Z,5.80
2022-08-19T14:52:13.135Z,5.90
2022-08-19T14:54:44.697Z,5.20
2022-08-19T14:57:17.777Z,6.00
2022-08-19T14:59:50.721Z,5.80
2022-08-19T15:02:34.534Z,6.00
2022-08-19T15:05:08.756Z,6.10
2022-08-19T15:07:41.217Z,5.90
2022-08-19T15:10:16.163Z,5.60
2022-08-19T15:12:51.759Z,5.70
2022-08-19T15:15:24.127Z,6.30
2022-08-19T15:18:11.195Z,5.30
2022-08-19T15:21:10.923Z,5.60
2022-08-19T15:23:45.496Z,6.00
2022-08-19T15:26:41.957Z,6.50
2022-08-19T15:29:17.117Z,6.00
2022-08-19T15:32:13.684Z,5.70
2022-08-19T15:34:48.068Z,5.90
2022-08-19T15:37:43.404Z,5.80
2022-08-19T15:40:38.863Z,5.90
2022-08-19T15:43:43.800Z,5.60
2022-08-19T15:46:41.553Z,6.10
2022-08-19T15:49:39.650Z,5.50
2022-08-19T15:52:28.483Z,5.70
2022-08-19T15:55:03.542Z,5.70
2022-08-19T15:57:53.089Z,6.60
2022-08-19T16:00:52.755Z,5.90
2022-08-19T16:04:04.799Z,5.80
2022-08-19T16:07:15.358Z,5.60
2022-08-19T16:10:26.850Z,5.90
2022-08-19T16:13:09.434Z,5.80
2022-08-19T16:15:43.519Z,5.50
2022-08-19T16:21:24.367Z,5.40
2022-08-19T16:24:18.527Z,5.80
2022-08-19T16:27:11.559Z,5.60
2022-08-19T16:30:06.044Z,5.40
2022-08-19T16:33:02.114Z,5.50
2022-08-19T16:35:44.377Z,5.90
2022-08-19T16:38:36.059Z,5.60
2022-08-19T16:43:55.193Z,6.00
2022-08-19T16:46:27.994Z,6.00
2022-08-19T16:48:59.633Z,5.90
2022-08-19T16:51:32.872Z,5.70
2022-08-19T16:54:04.923Z,5.80
2022-08-19T16:56:37.021Z,6.20
2022-08-19T16:59:08.802Z,6.30
2022-08-19T17:01:42.016Z,5.90
2022-08-19T17:04:14.578Z,5.90
2022-08-19T17:06:46.811Z,5.60
2022-08-19T17:09:19.310Z,6.30
2022-08-19T17:11:57.936Z,6.00
2022-08-19T17:14:29.830Z,5.90
2022-08-19T17:17:01.459Z,6.10
2022-08-19T17:19:32.858Z,5.70
2022-08-19T17:22:04.414Z,6.40
2022-08-19T17:24:36.512Z,6.20
2022-08-19T17:27:08.319Z,5.90
2022-08-19T17:29:41.918Z,6.10
2022-08-19T17:32:16.751Z,6.50
2022-08-19T17:34:56.846Z,6.30
2022-08-19T17:37:29.899Z,6.90
2022-08-19T17:40:03.115Z,6.80
2022-08-19T17:42:34.988Z,6.90
2022-08-19T17:45:07.212Z,6.90
2022-08-19T17:47:39.531Z,6.90
2022-08-19T17:50:13.275Z,6.70
2022-08-19T17:52:45.355Z,6.90
2022-08-19T17:55:16.886Z,6.80
2022-08-19T17:57:48.699Z,6.50
2022-08-19T18:00:22.029Z,6.90
2022-08-19T18:02:55.777Z,6.40
2022-08-19T18:05:31.040Z,6.70
2022-08-19T18:08:03.442Z,6.30
2022-08-19T18:10:35.423Z,5.60
2022-08-19T18:13:17.704Z,6.20
2022-08-19T18:15:50.591Z,5.90
2022-08-19T18:18:22.240Z,5.80
2022-08-19T18:20:53.810Z,6.40
2022-08-19T18:23:44.901Z,6.60
2022-08-19T18:26:17.423Z,5.60
2022-08-19T18:28:52.097Z,5.30
2022-08-19T18:31:24.959Z,5.10
2022-08-19T18:33:56.587Z,5.50
2022-08-19T18:36:52.545Z,5.60
2022-08-19T18:39:38.006Z,5.40
2022-08-19T18:42:35.302Z,5.90
2022-08-19T18:45:25.227Z,4.80
2022-08-19T18:48:27.081Z,5.10
2022-08-19T18:51:01.755Z,5.10
2022-08-19T18:53:35.928Z,5.20
2022-08-19T18:56:08.923Z,4.80
2022-08-19T18:58:42.385Z,4.90
2022-08-19T19:01:17.371Z,4.90
2022-08-19T19:03:53.098Z,5.50
2022-08-19T19:06:26.871Z,5.10
2022-08-19T19:08:59.261Z,5.10
2022-08-19T19:11:34.530Z,5.20
2022-08-19T19:14:16.267Z,5.10
2022-08-19T19:17:00.372Z,5.30
2022-08-19T19:19:33.205Z,5.10
2022-08-19T19:22:05.951Z,5.10
2022-08-19T19:24:38.917Z,5.20
2022-08-19T19:27:11.965Z,5.20
2022-08-19T19:29:45.682Z,5.10
2022-08-19T19:32:24.007Z,4.80
2022-08-19T19:34:56.092Z,5.20
2022-08-19T19:37:27.987Z,5.20
2022-08-19T19:39:59.967Z,5.20
2022-08-19T19:42:31.514Z,5.10
2022-08-19T19:45:05.473Z,4.50
2022-08-19T19:50:17.047Z,5.10
2022-08-19T19:52:49.322Z,5.20
2022-08-19T19:55:21.087Z,4.80
2022-08-19T19:57:54.067Z,4.90
2022-08-19T20:00:26.665Z,5.00
2022-08-19T20:02:58.087Z,4.90
2022-08-19T20:05:29.945Z,5.20
2022-08-19T20:08:19.034Z,4.80
2022-08-19T20:10:50.646Z,5.20
2022-08-19T20:13:22.521Z,5.30
2022-08-19T20:15:54.166Z,5.40
2022-08-19T20:18:25.909Z,4.90
2022-08-19T20:20:58.557Z,5.40
2022-08-19T20:23:31.658Z,5.50
2022-08-19T20:26:03.383Z,5.10
2022-08-19T20:28:35.589Z,5.20
2022-08-19T20:31:09.050Z,5.80
2022-08-19T20:33:40.556Z,5.30
2022-08-19T20:36:12.106Z,5.00
2022-08-19T20:38:43.713Z,4.70
2022-08-19T20:41:15.768Z,5.30
2022-08-19T20:43:49.262Z,5.00
2022-08-19T20:46:20.996Z,5.20
2022-08-19T20:48:52.386Z,5.50
2022-08-19T20:51:24.434Z,5.00
2022-08-19T20:53:56.485Z,5.00
2022-08-19T20:56:27.990Z,5.80
2022-08-19T20:59:04.738Z,5.10
2022-08-19T21:01:36.462Z,5.20
2022-08-19T21:04:08.152Z,4.80
2022-08-19T21:06:40.239Z,5.50
2022-08-19T21:11:44.500Z,4.50
2022-08-19T21:14:16.379Z,4.70
2022-08-19T21:16:47.952Z,5.20
2022-08-19T21:19:23.735Z,5.30
2022-08-19T21:21:55.742Z,4.80
2022-08-19T21:24:30.022Z,5.00
2022-08-19T21:27:03.625Z,5.50
2022-08-19T21:29:39.512Z,5.30
2022-08-19T21:32:14.028Z,4.90
2022-08-19T21:34:47.194Z,5.20
2022-08-19T21:37:25.018Z,5.00
2022-08-19T21:39:57.586Z,5.00
2022-08-19T21:42:30.137Z,4.90
2022-08-19T21:45:02.627Z,5.10
2022-08-19T21:47:34.398Z,5.20
2022-08-19T21:50:06.310Z,5.20
2022-08-19T21:52:38.787Z,5.60
2022-08-19T21:55:12.541Z,5.40
2022-08-19T21:57:44.117Z,5.10
2022-08-19T22:00:20.028Z,5.30
2022-08-19T22:02:53.017Z,5.60
2022-08-19T22:05:26.174Z,5.00
2022-08-19T22:07:59.279Z,5.10
2022-08-19T22:10:34.862Z,5.20
2022-08-19T22:13:08.994Z,5.00
2022-08-19T22:18:11.899Z,5.50
2022-08-19T22:20:44.902Z,5.50
2022-08-19T22:23:16.355Z,5.30
2022-08-19T22:25:48.509Z,5.50
2022-08-19T22:28:27.916Z,6.00
2022-08-19T22:30:59.747Z,6.20
2022-08-19T22:33:32.796Z,5.90
2022-08-19T22:36:07.774Z,5.80
2022-08-19T22:38:39.796Z,6.20
2022-08-19T22:41:11.885Z,6.10
2022-08-19T22:43:43.880Z,5.90
2022-08-19T22:46:17.052Z,5.40
2022-08-19T22:49:00.589Z,6.00
2022-08-19T22:51:50.560Z,5.90
2022-08-19T22:54:23.431Z,6.00
2022-08-19T22:56:54.791Z,6.30
2022-08-19T22:59:26.266Z,6.10
2022-08-19T23:01:57.938Z,6.10
2022-08-19T23:04:29.302Z,6.20
2022-08-19T23:07:01.985Z,6.50
2022-08-19T23:09:33.621Z,7.00
2022-08-19T23:12:05.681Z,6.60
2022-08-19T23:14:37.949Z,6.60
2022-08-19T23:17:09.501Z,6.30
2022-08-19T23:19:40.990Z,5.90
2022-08-19T23:22:16.905Z,6.50
2022-08-19T23:24:48.470Z,6.10
2022-08-19T23:27:44.800Z,6.40
2022-08-19T23:30:28.405Z,6.40
2022-08-19T23:33:02.141Z,6.30
2022-08-19T23:35:37.461Z,6.00
2022-08-19T23:38:09.153Z,6.00
2022-08-19T23:40:41.016Z,6.10
2022-08-19T23:43:17.031Z,6.10
2022-08-19T23:45:58.021Z,6.30
2022-08-19T23:48:33.528Z,7.40
2022-08-19T23:51:07.716Z,6.70
2022-08-19T23:56:11.244Z,6.90
2022-08-19T23:58:42.946Z,7.10
